createdAt,value
2022-08-08T00:01:52.626Z,56.00
2022-08-08T00:04:36.333Z,56.34
2022-08-08T00:07:30.797Z,56.45
2022-08-08T00:10:28.245Z,56.61
2022-08-08T00:13:10.612Z,56.61
2022-08-08T00:15:57.539Z,56.69
2022-08-08T00:18:54.354Z,56.27
2022-08-08T00:21:39.618Z,56.30
2022-08-08T00:24:31.668Z,56.21
2022-08-08T00:27:03.382Z,56.34
2022-08-08T00:29:45.672Z,56.49
2022-08-08T00:32:34.922Z,56.11
2022-08-08T00:35:18.724Z,56.40
2022-08-08T00:38:01.380Z,56.48
2022-08-08T00:41:06.731Z,56.37
2022-08-08T00:43:55.916Z,56.45
2022-08-08T00:46:59.214Z,56.56
2022-08-08T00:49:35.626Z,56.95
2022-08-08T00:52:40.144Z,56.58
2022-08-08T00:55:53.866Z,56.79
2022-08-08T00:58:54.336Z,56.76
2022-08-08T01:02:01.809Z,57.12
2022-08-08T01:04:58.967Z,57.46
2022-08-08T01:07:55.507Z,57.23
2022-08-08T01:10:57.485Z,57.44
2022-08-08T01:14:01.847Z,57.14
2022-08-08T01:17:11.930Z,57.52
2022-08-08T01:20:07.927Z,57.47
2022-08-08T01:23:01.593Z,57.90
2022-08-08T01:26:05.851Z,57.93
2022-08-08T01:29:05.755Z,57.96
2022-08-08T01:32:05.774Z,57.95
2022-08-08T01:35:11.250Z,57.85
2022-08-08T01:37:58.381Z,58.31
2022-08-08T01:41:20.443Z,58.23
2022-08-08T01:43:56.575Z,58.33
2022-08-08T01:47:00.933Z,58.00
2022-08-08T01:50:12.242Z,58.37
2022-08-08T01:54:20.290Z,58.35
2022-08-08T01:56:30.852Z,58.30
2022-08-08T01:59:37.979Z,57.95
2022-08-08T02:02:33.994Z,58.18
2022-08-08T02:05:07.943Z,58.03
2022-08-08T02:07:53.334Z,58.14
2022-08-08T02:10:51.155Z,58.44
2022-08-08T02:13:53.969Z,58.86
2022-08-08T02:16:34.422Z,58.63
2022-08-08T02:19:41.885Z,58.77
2022-08-08T02:22:10.020Z,58.87
2022-08-08T02:24:49.775Z,58.87
2022-08-08T02:27:24.557Z,59.32
2022-08-08T02:30:21.269Z,58.79
2022-08-08T02:33:09.877Z,59.05
2022-08-08T02:36:05.022Z,59.19
2022-08-08T02:38:33.863Z,59.13
2022-08-08T02:41:58.044Z,59.23
2022-08-08T02:44:36.997Z,59.22
2022-08-08T02:47:13.113Z,59.11
2022-08-08T02:49:51.056Z,58.98
2022-08-08T02:52:50.939Z,58.93
2022-08-08T02:55:47.819Z,58.70
2022-08-08T02:58:49.839Z,59.04
2022-08-08T03:01:47.505Z,58.72
2022-08-08T03:05:04.548Z,58.87
2022-08-08T03:07:58.008Z,58.94
2022-08-08T03:11:06.124Z,58.86
2022-08-08T03:15:56.774Z,59.23
2022-08-08T03:16:48.338Z,59.06
2022-08-08T03:19:51.086Z,58.93
2022-08-08T03:22:38.286Z,59.23
2022-08-08T03:25:14.523Z,59.07
2022-08-08T03:27:56.495Z,59.23
2022-08-08T03:30:25.369Z,59.11
2022-08-08T03:32:57.671Z,59.01
2022-08-08T03:35:30.244Z,59.19
2022-08-08T03:38:57.069Z,58.97
2022-08-08T03:40:52.001Z,59.07
2022-08-08T03:43:20.327Z,59.32
2022-08-08T03:46:07.358Z,59.35
2022-08-08T03:49:09.940Z,59.59
2022-08-08T03:51:50.791Z,59.77
2022-08-08T03:54:41.138Z,59.84
2022-08-08T03:58:30.484Z,59.91
2022-08-08T03:59:59.596Z,59.98
2022-08-08T04:02:47.564Z,60.13
2022-08-08T04:05:28.264Z,59.90
2022-08-08T04:08:01.576Z,60.01
2022-08-08T04:10:32.783Z,60.01
2022-08-08T04:13:08.289Z,59.96
2022-08-08T04:15:55.032Z,60.04
2022-08-08T04:18:42.021Z,59.83
2022-08-08T04:21:22.900Z,59.86
2022-08-08T04:24:12.013Z,59.65
2022-08-08T04:26:56.870Z,59.85
2022-08-08T04:29:24.669Z,60.08
2022-08-08T04:31:59.715Z,60.23
2022-08-08T04:34:32.300Z,59.98
2022-08-08T04:37:11.565Z,60.08
2022-08-08T04:40:04.349Z,60.24
2022-08-08T04:42:27.725Z,60.31
2022-08-08T04:44:54.641Z,60.24
2022-08-08T04:47:21.982Z,60.28
2022-08-08T04:50:00.449Z,60.21
2022-08-08T04:52:33.950Z,60.23
2022-08-08T04:55:06.461Z,60.35
2022-08-08T04:57:34.653Z,60.63
2022-08-08T05:00:03.530Z,60.29
2022-08-08T05:02:31.143Z,60.18
2022-08-08T05:04:59.921Z,61.15
2022-08-08T05:07:38.158Z,61.08
2022-08-08T05:10:12.671Z,61.28
2022-08-08T05:12:53.368Z,60.97
2022-08-08T05:15:31.633Z,61.25
2022-08-08T05:18:16.467Z,60.94
2022-08-08T05:20:50.111Z,61.15
2022-08-08T05:23:18.321Z,61.05
2022-08-08T05:25:46.812Z,61.27
2022-08-08T05:28:14.783Z,61.24
2022-08-08T05:30:47.137Z,61.09
2022-08-08T05:33:16.935Z,61.16
2022-08-08T05:35:46.383Z,61.20
2022-08-08T05:38:31.321Z,61.03
2022-08-08T05:41:05.387Z,61.63
2022-08-08T05:43:39.181Z,61.42
2022-08-08T05:46:10.453Z,61.08
2022-08-08T05:48:41.978Z,60.88
2022-08-08T05:51:13.292Z,60.75
2022-08-08T05:54:25.749Z,60.72
2022-08-08T05:56:38.700Z,60.27
2022-08-08T05:59:59.626Z,60.33
2022-08-08T06:02:19.953Z,59.90
2022-08-08T06:04:55.102Z,59.69
2022-08-08T06:07:24.500Z,59.71
2022-08-08T06:09:59.422Z,60.09
2022-08-08T06:12:31.953Z,60.32
2022-08-08T06:15:03.833Z,59.99
2022-08-08T06:17:50.824Z,60.07
2022-08-08T06:20:25.945Z,60.27
2022-08-08T06:22:56.443Z,60.13
2022-08-08T06:26:34.854Z,60.48
2022-08-08T06:28:29.728Z,59.74
2022-08-08T06:31:02.676Z,59.27
2022-08-08T06:34:26.945Z,59.20
2022-08-08T06:36:55.226Z,60.07
2022-08-08T06:39:27.657Z,60.21
2022-08-08T06:42:02.799Z,60.22
2022-08-08T06:44:42.582Z,60.12
2022-08-08T06:47:10.673Z,60.14
2022-08-08T06:49:55.215Z,60.10
2022-08-08T06:52:27.589Z,59.36
2022-08-08T06:54:55.494Z,59.07
2022-08-08T06:57:22.205Z,59.02
2022-08-08T07:00:10.538Z,58.33
2022-08-08T07:02:39.198Z,58.79
2022-08-08T07:05:20.392Z,57.19
2022-08-08T07:07:56.572Z,57.75
2022-08-08T07:10:33.979Z,56.13
2022-08-08T07:13:09.400Z,56.19
2022-08-08T07:16:15.329Z,54.77
2022-08-08T07:19:00.321Z,54.05
2022-08-08T07:21:37.404Z,54.34
2022-08-08T07:24:19.389Z,54.97
2022-08-08T07:26:59.081Z,51.89
2022-08-08T07:30:00.955Z,51.83
2022-08-08T07:32:24.398Z,52.73
2022-08-08T07:35:00.844Z,51.53
2022-08-08T07:37:56.571Z,51.46
2022-08-08T07:40:32.426Z,52.10
2022-08-08T07:43:09.126Z,52.43
2022-08-08T07:46:05.239Z,52.46
2022-08-08T07:48:24.371Z,52.84
2022-08-08T07:50:52.598Z,52.82
2022-08-08T07:54:01.228Z,52.41
2022-08-08T07:56:15.721Z,50.92
2022-08-08T07:58:44.529Z,50.30
2022-08-08T08:01:27.042Z,50.48
2022-08-08T08:04:03.842Z,50.95
2022-08-08T08:06:33.326Z,51.59
2022-08-08T08:09:18.220Z,49.24
2022-08-08T08:11:51.588Z,47.95
2022-08-08T08:15:11.928Z,46.73
2022-08-08T08:17:48.578Z,47.89
2022-08-08T08:20:19.565Z,48.21
2022-08-08T08:22:48.058Z,47.00
2022-08-08T08:25:17.002Z,47.22
2022-08-08T08:28:00.336Z,45.98
2022-08-08T08:30:30.193Z,45.40
2022-08-08T08:32:59.147Z,45.82
2022-08-08T08:35:29.921Z,45.51
2022-08-08T08:38:17.347Z,46.37
2022-08-08T08:40:51.622Z,47.09
2022-08-08T08:43:20.019Z,46.00
2022-08-08T08:45:57.383Z,45.70
2022-08-08T08:48:25.608Z,46.17
2022-08-08T08:50:55.659Z,46.52
2022-08-08T08:53:27.977Z,46.23
2022-08-08T08:56:18.173Z,46.27
2022-08-08T08:58:52.884Z,45.90
2022-08-08T09:01:27.977Z,44.14
2022-08-08T09:04:01.310Z,45.48
2022-08-08T09:06:37.491Z,47.17
2022-08-08T09:09:26.358Z,46.77
2022-08-08T09:12:11.098Z,44.64
2022-08-08T09:14:45.056Z,45.50
2022-08-08T09:17:19.084Z,45.19
2022-08-08T09:21:57.487Z,45.73
2022-08-08T09:22:35.736Z,45.06
2022-08-08T09:25:04.532Z,46.16
2022-08-08T09:27:57.099Z,45.32
2022-08-08T09:30:20.160Z,44.96
2022-08-08T09:33:55.476Z,43.82
2022-08-08T09:35:49.328Z,44.63
2022-08-08T09:38:29.593Z,44.97
2022-08-08T09:41:03.539Z,43.26
2022-08-08T09:44:04.514Z,43.06
2022-08-08T09:46:25.556Z,41.37
2022-08-08T09:48:58.538Z,42.12
2022-08-08T09:52:06.411Z,40.72
2022-08-08T09:54:41.501Z,42.34
2022-08-08T09:57:16.122Z,41.03
2022-08-08T10:00:02.080Z,40.53
2022-08-08T10:02:47.041Z,39.59
2022-08-08T10:05:22.767Z,39.28
2022-08-08T10:07:51.960Z,40.05
2022-08-08T10:10:33.577Z,40.07
2022-08-08T10:13:32.122Z,40.91
2022-08-08T10:16:05.192Z,41.15
2022-08-08T10:18:35.126Z,41.00
2022-08-08T10:21:25.247Z,41.49
2022-08-08T10:23:58.081Z,40.26
2022-08-08T10:26:57.611Z,39.67
2022-08-08T10:29:24.849Z,38.27
2022-08-08T10:31:57.439Z,37.38
2022-08-08T10:34:27.250Z,40.37
2022-08-08T10:36:59.811Z,38.52
2022-08-08T10:39:43.652Z,39.15
2022-08-08T10:42:19.053Z,38.75
2022-08-08T10:44:49.361Z,38.68
2022-08-08T10:47:20.961Z,38.33
2022-08-08T10:50:00.432Z,39.50
2022-08-08T10:52:34.282Z,38.57
2022-08-08T10:55:06.656Z,39.03
2022-08-08T10:57:49.530Z,39.06
2022-08-08T11:00:26.066Z,37.64
2022-08-08T11:02:57.504Z,37.80
2022-08-08T11:05:24.614Z,38.28
2022-08-08T11:08:37.345Z,37.40
2022-08-08T11:10:41.861Z,37.47
2022-08-08T11:16:00.745Z,36.27
2022-08-08T11:18:29.898Z,35.14
2022-08-08T11:21:00.864Z,36.54
2022-08-08T11:23:39.680Z,37.29
2022-08-08T11:26:06.779Z,38.03
2022-08-08T11:28:38.456Z,38.44
2022-08-08T11:31:09.528Z,38.53
2022-08-08T11:33:59.368Z,37.11
2022-08-08T11:36:29.051Z,36.43
2022-08-08T11:38:57.122Z,36.48
2022-08-08T11:41:28.194Z,37.13
2022-08-08T11:44:00.740Z,37.26
2022-08-08T11:46:31.670Z,37.34
2022-08-08T11:49:00.183Z,37.21
2022-08-08T11:51:30.719Z,36.77
2022-08-08T11:54:27.248Z,36.33
2022-08-08T11:56:55.933Z,37.02
2022-08-08T12:00:02.124Z,36.72
2022-08-08T12:02:32.371Z,36.21
2022-08-08T12:05:07.056Z,36.14
2022-08-08T12:07:53.513Z,35.68
2022-08-08T12:10:28.119Z,36.42
2022-08-08T12:13:06.893Z,35.58
2022-08-08T12:15:42.681Z,35.00
2022-08-08T12:18:24.437Z,33.85
2022-08-08T12:20:56.595Z,33.48
2022-08-08T12:23:43.173Z,33.04
2022-08-08T12:26:28.181Z,33.58
2022-08-08T12:29:19.206Z,34.17
2022-08-08T12:31:53.878Z,35.07
2022-08-08T12:34:36.806Z,35.50
2022-08-08T12:37:05.199Z,34.23
2022-08-08T12:40:01.851Z,34.76
2022-08-08T12:42:22.067Z,33.79
2022-08-08T12:45:20.090Z,34.40
2022-08-08T12:48:10.290Z,31.36
2022-08-08T12:50:54.580Z,32.34
2022-08-08T12:53:30.282Z,31.40
2022-08-08T12:56:17.605Z,31.95
2022-08-08T12:58:55.491Z,32.84
2022-08-08T13:01:35.179Z,32.99
2022-08-08T13:04:24.490Z,33.14
2022-08-08T13:07:06.435Z,34.40
2022-08-08T13:09:57.383Z,35.38
2022-08-08T13:12:30.391Z,34.87
2022-08-08T13:15:03.107Z,35.62
2022-08-08T13:17:54.322Z,35.14
2022-08-08T13:20:19.726Z,33.19
2022-08-08T13:22:46.777Z,31.10
2022-08-08T13:25:14.078Z,31.93
2022-08-08T13:27:41.847Z,32.37
2022-08-08T13:30:10.474Z,33.29
2022-08-08T13:32:39.681Z,33.68
2022-08-08T13:35:24.260Z,34.43
2022-08-08T13:38:05.176Z,35.11
2022-08-08T13:40:34.116Z,34.45
2022-08-08T13:43:00.875Z,33.75
2022-08-08T13:45:31.016Z,31.09
2022-08-08T13:48:02.043Z,31.76
2022-08-08T13:50:43.109Z,33.23
2022-08-08T13:53:27.031Z,33.36
2022-08-08T13:56:02.056Z,33.71
2022-08-08T13:58:31.149Z,33.85
2022-08-08T14:01:11.132Z,33.52
2022-08-08T14:03:53.343Z,31.42
2022-08-08T14:06:32.897Z,31.94
2022-08-08T14:09:24.443Z,31.77
2022-08-08T14:11:48.796Z,30.77
2022-08-08T14:14:20.607Z,31.03
2022-08-08T14:16:52.089Z,32.36
2022-08-08T14:19:28.018Z,32.52
2022-08-08T14:22:20.274Z,32.02
2022-08-08T14:24:52.646Z,29.50
2022-08-08T14:27:27.165Z,31.07
2022-08-08T14:30:02.897Z,30.34
2022-08-08T14:32:31.360Z,32.80
2022-08-08T14:35:08.104Z,32.86
2022-08-08T14:37:59.646Z,30.40
2022-08-08T14:40:29.863Z,33.46
2022-08-08T14:43:01.383Z,33.02
2022-08-08T14:46:01.546Z,28.17
2022-08-08T14:48:27.393Z,26.72
2022-08-08T14:51:06.631Z,26.17
2022-08-08T14:53:56.083Z,26.25
2022-08-08T14:56:25.781Z,28.39
2022-08-08T14:58:54.416Z,29.15
2022-08-08T15:01:41.384Z,29.31
2022-08-08T15:04:09.374Z,29.97
2022-08-08T15:06:37.275Z,30.00
2022-08-08T15:09:04.509Z,30.83
2022-08-08T15:11:43.043Z,28.07
2022-08-08T15:14:14.365Z,26.19
2022-08-08T15:16:42.618Z,28.57
2022-08-08T15:19:11.429Z,28.23
2022-08-08T15:21:42.864Z,27.14
2022-08-08T15:24:14.066Z,27.61
2022-08-08T15:26:41.803Z,28.32
2022-08-08T15:29:08.421Z,28.90
2022-08-08T15:32:03.835Z,29.05
2022-08-08T15:34:29.301Z,29.10
2022-08-08T15:37:02.108Z,29.15
2022-08-08T15:39:29.746Z,26.41
2022-08-08T15:41:58.180Z,26.55
2022-08-08T15:44:27.275Z,25.01
2022-08-08T15:46:54.790Z,25.49
2022-08-08T15:49:24.447Z,25.18
2022-08-08T15:51:56.430Z,26.78
2022-08-08T15:54:38.663Z,26.29
2022-08-08T15:57:09.306Z,26.45
2022-08-08T16:00:10.971Z,26.71
2022-08-08T16:02:30.575Z,26.87
2022-08-08T16:04:58.838Z,27.06
2022-08-08T16:07:25.695Z,26.04
2022-08-08T16:13:11.263Z,25.23
2022-08-08T16:13:15.666Z,25.79
2022-08-08T16:15:59.708Z,26.02
2022-08-08T16:18:33.211Z,24.98
2022-08-08T16:21:00.889Z,25.42
2022-08-08T16:23:32.190Z,23.34
2022-08-08T16:26:04.825Z,23.88
2022-08-08T16:28:41.446Z,24.92
2022-08-08T16:31:09.205Z,25.87
2022-08-08T16:33:39.451Z,24.89
2022-08-08T16:36:08.971Z,24.17
2022-08-08T16:38:44.874Z,24.74
2022-08-08T16:41:22.758Z,23.47
2022-08-08T16:43:51.530Z,23.48
2022-08-08T16:46:37.474Z,24.34
2022-08-08T16:49:09.200Z,25.48
2022-08-08T16:55:00.968Z,25.91
2022-08-08T16:55:05.352Z,25.13
2022-08-08T16:57:23.663Z,25.28
2022-08-08T16:59:58.016Z,24.32
2022-08-08T17:02:38.246Z,25.52
2022-08-08T17:05:06.607Z,24.66
2022-08-08T17:07:33.180Z,23.33
2022-08-08T17:10:05.059Z,23.89
2022-08-08T17:12:34.769Z,24.18
2022-08-08T17:15:17.702Z,24.97
2022-08-08T17:18:03.561Z,24.71
2022-08-08T17:20:39.622Z,24.68
2022-08-08T17:23:25.774Z,23.90
2022-08-08T17:25:54.147Z,25.25
2022-08-08T17:28:34.618Z,24.75
2022-08-08T17:31:39.539Z,25.02
2022-08-08T17:34:37.384Z,24.22
2022-08-08T17:36:55.172Z,25.44
2022-08-08T17:40:03.534Z,25.18
2022-08-08T17:42:14.674Z,25.57
2022-08-08T17:44:44.181Z,25.25
2022-08-08T17:47:11.229Z,25.19
2022-08-08T17:49:50.410Z,25.09
2022-08-08T17:52:18.552Z,26.40
2022-08-08T17:54:46.322Z,26.57
2022-08-08T17:57:14.260Z,27.22
2022-08-08T17:59:45.635Z,27.40
2022-08-08T18:02:18.699Z,27.52
2022-08-08T18:04:50.951Z,27.70
2022-08-08T18:08:04.064Z,27.71
2022-08-08T18:10:05.165Z,28.50
2022-08-08T18:12:31.719Z,28.99
2022-08-08T18:14:58.675Z,29.60
2022-08-08T18:17:28.563Z,30.46
2022-08-08T18:20:37.091Z,31.72
2022-08-08T18:22:58.973Z,32.08
2022-08-08T18:25:25.736Z,32.90
2022-08-08T18:27:55.110Z,33.25
2022-08-08T18:30:21.712Z,33.73
2022-08-08T18:32:48.645Z,34.17
2022-08-08T18:35:16.820Z,34.51
2022-08-08T18:37:48.458Z,35.08
2022-08-08T18:40:15.640Z,35.08
2022-08-08T18:42:45.798Z,35.11
2022-08-08T18:45:45.092Z,35.48
2022-08-08T18:48:07.759Z,35.64
2022-08-08T18:50:39.440Z,36.09
2022-08-08T18:53:06.739Z,36.21
2022-08-08T18:55:33.998Z,36.51
2022-08-08T18:58:00.561Z,36.63
2022-08-08T19:00:27.381Z,37.00
2022-08-08T19:02:55.213Z,37.51
2022-08-08T19:05:31.834Z,38.23
2022-08-08T19:08:07.953Z,38.33
2022-08-08T19:10:35.206Z,38.45
2022-08-08T19:13:01.800Z,38.53
2022-08-08T19:15:34.171Z,39.26
2022-08-08T19:18:30.961Z,39.72
2022-08-08T19:20:48.687Z,40.00
2022-08-08T19:23:16.728Z,40.47
2022-08-08T19:26:20.163Z,40.30
2022-08-08T19:28:30.056Z,40.42
2022-08-08T19:31:03.831Z,40.35
2022-08-08T19:33:51.578Z,40.27
2022-08-08T19:36:27.548Z,40.72
2022-08-08T19:38:56.282Z,40.95
2022-08-08T19:41:28.029Z,41.46
2022-08-08T19:44:02.761Z,41.26
2022-08-08T19:46:33.207Z,41.72
2022-08-08T19:49:01.024Z,41.85
2022-08-08T19:51:34.296Z,42.33
2022-08-08T19:54:06.140Z,42.39
2022-08-08T19:56:40.374Z,42.91
2022-08-08T19:59:09.246Z,42.87
2022-08-08T20:02:01.719Z,43.08
2022-08-08T20:04:23.774Z,43.14
2022-08-08T20:06:51.010Z,43.28
2022-08-08T20:09:22.418Z,43.26
2022-08-08T20:11:50.164Z,43.22
2022-08-08T20:14:33.932Z,43.35
2022-08-08T20:17:02.166Z,43.83
2022-08-08T20:19:33.433Z,44.01
2022-08-08T20:22:03.143Z,43.90
2022-08-08T20:24:31.885Z,44.34
2022-08-08T20:26:58.531Z,43.91
2022-08-08T20:29:25.793Z,44.20
2022-08-08T20:32:14.074Z,44.24
2022-08-08T20:34:47.953Z,44.44
2022-08-08T20:37:20.797Z,44.60
2022-08-08T20:39:51.628Z,45.07
2022-08-08T20:42:20.431Z,44.60
2022-08-08T20:44:55.134Z,45.10
2022-08-08T20:47:23.346Z,45.33
2022-08-08T20:50:03.956Z,45.32
2022-08-08T20:52:32.136Z,45.49
2022-08-08T20:54:58.881Z,45.81
2022-08-08T21:00:08.675Z,45.95
2022-08-08T21:02:37.412Z,45.84
2022-08-08T21:05:04.522Z,46.13
2022-08-08T21:08:07.688Z,46.04
2022-08-08T21:10:20.765Z,45.92
2022-08-08T21:12:54.251Z,46.16
2022-08-08T21:16:04.946Z,46.48
2022-08-08T21:18:08.179Z,46.25
2022-08-08T21:20:35.190Z,46.65
2022-08-08T21:23:04.361Z,46.65
2022-08-08T21:25:36.488Z,47.00
2022-08-08T21:28:14.443Z,47.20
2022-08-08T21:30:42.905Z,47.32
2022-08-08T21:33:16.221Z,47.19
2022-08-08T21:36:14.908Z,47.51
2022-08-08T21:38:29.909Z,47.99
2022-08-08T21:40:58.013Z,47.72
2022-08-08T21:43:31.134Z,48.74
2022-08-08T21:48:06.009Z,48.42
2022-08-08T21:48:51.441Z,48.30
2022-08-08T21:51:45.856Z,48.49
2022-08-08T21:54:23.209Z,48.95
2022-08-08T21:56:54.911Z,48.74
2022-08-08T21:59:22.925Z,48.84
2022-08-08T22:01:52.525Z,48.92
2022-08-08T22:04:24.638Z,48.71
2022-08-08T22:06:52.490Z,49.10
2022-08-08T22:09:19.311Z,49.49
2022-08-08T22:12:03.086Z,49.54
2022-08-08T22:14:32.735Z,49.78
2022-08-08T22:17:01.268Z,49.78
2022-08-08T22:19:29.049Z,49.72
2022-08-08T22:21:56.691Z,49.82
2022-08-08T22:24:23.800Z,49.89
2022-08-08T22:27:01.232Z,49.98
2022-08-08T22:30:01.648Z,50.35
2022-08-08T22:32:18.925Z,50.41
2022-08-08T22:34:50.606Z,50.77
2022-08-08T22:37:49.474Z,50.71
2022-08-08T22:40:11.748Z,51.46
2022-08-08T22:42:42.930Z,50.51
2022-08-08T22:45:13.745Z,50.54
2022-08-08T22:47:48.684Z,50.75
2022-08-08T22:50:26.096Z,50.81
2022-08-08T22:54:30.993Z,51.73
2022-08-08T22:55:59.521Z,51.05
2022-08-08T22:58:28.671Z,51.13
2022-08-08T23:00:56.144Z,50.89
2022-08-08T23:03:24.208Z,50.77
2022-08-08T23:06:01.614Z,51.04
2022-08-08T23:08:28.469Z,50.86
2022-08-08T23:11:06.400Z,51.05
2022-08-08T23:13:42.098Z,51.13
2022-08-08T23:16:37.871Z,51.44
2022-08-08T23:19:04.734Z,51.45
2022-08-08T23:21:35.599Z,51.68
2022-08-08T23:24:05.887Z,51.62
2022-08-08T23:26:33.084Z,51.60
2022-08-08T23:29:00.803Z,51.77
2022-08-08T23:31:27.435Z,51.50
2022-08-08T23:34:17.001Z,51.55
2022-08-08T23:36:40.869Z,51.64
2022-08-08T23:39:07.812Z,51.53
2022-08-08T23:41:41.577Z,51.49
2022-08-08T23:44:13.226Z,51.77
2022-08-08T23:49:05.467Z,51.64
2022-08-08T23:49:26.699Z,51.58
2022-08-08T23:52:05.860Z,51.94
2022-08-08T23:54:42.478Z,51.97
2022-08-08T23:57:26.658Z,51.98
